Piper — WDE6779 — position and weather

sailwx.info

Track history (hours):
 
Tides and Currents Weather Stations Pressure Air Temp Water Temp Dewpoint Dewpoint Depression Visibility Wind Speed Wind Dir Waves Ship Positions

Piper

Owner: ADS MARINE, LLC, MORGAN CITY, LA. More information available from US FCC via Universal Licensing System and Coast Guard Vessel Documentation Center.

Last reported at 2016-Jun-22 08:31 UTC. Time now 2016-Jun-26 04:41 UTC.
Position N 29°31' W 092°19'.

Length 40 m; draft 3 m.

Type: Cargo ship. MMSI: 367384720.

Date/timePositionNaut miles runAvg speedWind from/ knotsBaromVisibWave heightAir tempDewpointWater temp
2016-Jun-22 08:31N 29°31' W 092°19'5 5.0
2016-Jun-22 07:33N 29°36' W 092°17'6 6.1
2016-Jun-22 06:33N 29°42' W 092°15'6 6.0
2016-Jun-22 05:33N 29°47' W 092°11'0 0.3
2016-Jun-22 04:33N 29°47' W 092°11'0 0.0
2016-Jun-22 03:33N 29°47' W 092°11'0 0.1
2016-Jun-22 02:33N 29°47' W 092°11'0 0.0
2016-Jun-22 01:33N 29°47' W 092°11'1 0.9
2016-Jun-22 00:33N 29°47' W 092°10'0 0.0
2016-Jun-21 23:33N 29°47' W 092°10'0 0.0
2016-Jun-21 22:33N 29°47' W 092°10'0 0.0
2016-Jun-21 21:33N 29°47' W 092°10'0 0.0
2016-Jun-21 20:33N 29°47' W 092°10'0 0.0
2016-Jun-21 19:33N 29°47' W 092°10'0 0.0
2016-Jun-21 18:33N 29°47' W 092°10'0 0.0
2016-Jun-21 17:33N 29°47' W 092°10'0 0.0
2016-Jun-21 16:33N 29°47' W 092°10'0 0.0
2016-Jun-21 15:33N 29°47' W 092°10'0 0.2
2016-Jun-21 14:33N 29°47' W 092°10'1 0.8
2016-Jun-21 13:33N 29°47' W 092°11'0 0.0
2016-Jun-21 12:33N 29°47' W 092°11'4 3.8
2016-Jun-21 11:33N 29°44' W 092°14'7 7.2
2016-Jun-21 10:33N 29°37' W 092°17'5 4.6
2016-Jun-21 09:30N 29°32' W 092°18'  
2016-Jun-18 07:33N 28°47' W 091°45'0 0.0
2016-Jun-18 04:29N 28°47' W 091°45'0 0.0
2016-Jun-18 03:33N 28°47' W 091°45'0 0.0
2016-Jun-18 02:33N 28°47' W 091°45'0 0.0
2016-Jun-17 04:22N 28°47' W 091°45'0 0.1
2016-Jun-17 01:30N 28°47' W 091°45'12 0.6
2016-Jun-16 04:32N 28°36' W 091°43'14 2.2
2016-Jun-15 22:06N 28°50' W 091°44'54 3.1
2016-Jun-15 04:33N 29°35' W 092°18'6 6.1
2016-Jun-15 03:34N 29°40' W 092°15'7 6.3
2016-Jun-15 02:31N 29°46' W 092°11'1 1.2
2016-Jun-15 01:32N 29°47' W 092°11'0 0.3
2016-Jun-15 00:34N 29°47' W 092°11'0 0.0
2016-Jun-14 23:33N 29°47' W 092°11'1 0.5
2016-Jun-14 22:33N 29°47' W 092°10'0 0.0
2016-Jun-14 21:32N 29°47' W 092°10'0 0.0
2016-Jun-14 20:34N 29°47' W 092°10'0 0.0
2016-Jun-14 19:34N 29°47' W 092°10'0 0.0
2016-Jun-14 18:33N 29°47' W 092°10'0 0.0
2016-Jun-14 17:34N 29°47' W 092°10'0 0.0
2016-Jun-14 16:34N 29°47' W 092°10'1 0.7
2016-Jun-14 15:32N 29°47' W 092°11'0 0.1
2016-Jun-14 14:33N 29°47' W 092°11'6 6.3
2016-Jun-14 13:33N 29°42' W 092°15'7 7.3
2016-Jun-14 12:32N 29°35' W 092°18'  
Track history (hours):
 
Tides and Currents Weather Stations Pressure Air Temp Water Temp Dewpoint Dewpoint Depression Visibility Wind Speed Wind Dir Waves Ship Positions

Piper

Owner: ADS MARINE, LLC, MORGAN CITY, LA. More information available from US FCC via Universal Licensing System and Coast Guard Vessel Documentation Center.

Last reported at 2016-Jun-22 08:31 UTC. Time now 2016-Jun-26 04:41 UTC.
Position N 29°31' W 092°19'.

Length 40 m; draft 3 m.

Type: Cargo ship. MMSI: 367384720.

Date/timePositionNaut miles runAvg speedWind from/ knotsBaromVisibWave heightAir tempDewpointWater temp
2016-Jun-22 08:31N 29°31' W 092°19'5 5.0
2016-Jun-22 07:33N 29°36' W 092°17'6 6.1
2016-Jun-22 06:33N 29°42' W 092°15'6 6.0
2016-Jun-22 05:33N 29°47' W 092°11'0 0.3
2016-Jun-22 04:33N 29°47' W 092°11'0 0.0
2016-Jun-22 03:33N 29°47' W 092°11'0 0.1
2016-Jun-22 02:33N 29°47' W 092°11'0 0.0
2016-Jun-22 01:33N 29°47' W 092°11'1 0.9
2016-Jun-22 00:33N 29°47' W 092°10'0 0.0
2016-Jun-21 23:33N 29°47' W 092°10'0 0.0
2016-Jun-21 22:33N 29°47' W 092°10'0 0.0
2016-Jun-21 21:33N 29°47' W 092°10'0 0.0
2016-Jun-21 20:33N 29°47' W 092°10'0 0.0
2016-Jun-21 19:33N 29°47' W 092°10'0 0.0
2016-Jun-21 18:33N 29°47' W 092°10'0 0.0
2016-Jun-21 17:33N 29°47' W 092°10'0 0.0
2016-Jun-21 16:33N 29°47' W 092°10'0 0.0
2016-Jun-21 15:33N 29°47' W 092°10'0 0.2
2016-Jun-21 14:33N 29°47' W 092°10'1 0.8
2016-Jun-21 13:33N 29°47' W 092°11'0 0.0
2016-Jun-21 12:33N 29°47' W 092°11'4 3.8
2016-Jun-21 11:33N 29°44' W 092°14'7 7.2
2016-Jun-21 10:33N 29°37' W 092°17'5 4.6
2016-Jun-21 09:30N 29°32' W 092°18'  
2016-Jun-18 07:33N 28°47' W 091°45'0 0.0
2016-Jun-18 04:29N 28°47' W 091°45'0 0.0
2016-Jun-18 03:33N 28°47' W 091°45'0 0.0
2016-Jun-18 02:33N 28°47' W 091°45'0 0.0
2016-Jun-17 04:22N 28°47' W 091°45'0 0.1
2016-Jun-17 01:30N 28°47' W 091°45'12 0.6
2016-Jun-16 04:32N 28°36' W 091°43'14 2.2
2016-Jun-15 22:06N 28°50' W 091°44'54 3.1
2016-Jun-15 04:33N 29°35' W 092°18'6 6.1
2016-Jun-15 03:34N 29°40' W 092°15'7 6.3
2016-Jun-15 02:31N 29°46' W 092°11'1 1.2
2016-Jun-15 01:32N 29°47' W 092°11'0 0.3
2016-Jun-15 00:34N 29°47' W 092°11'0 0.0
2016-Jun-14 23:33N 29°47' W 092°11'1 0.5
2016-Jun-14 22:33N 29°47' W 092°10'0 0.0
2016-Jun-14 21:32N 29°47' W 092°10'0 0.0
2016-Jun-14 20:34N 29°47' W 092°10'0 0.0
2016-Jun-14 19:34N 29°47' W 092°10'0 0.0
2016-Jun-14 18:33N 29°47' W 092°10'0 0.0
2016-Jun-14 17:34N 29°47' W 092°10'0 0.0
2016-Jun-14 16:34N 29°47' W 092°10'1 0.7
2016-Jun-14 15:32N 29°47' W 092°11'0 0.1
2016-Jun-14 14:33N 29°47' W 092°11'6 6.3
2016-Jun-14 13:33N 29°42' W 092°15'7 7.3
2016-Jun-14 12:32N 29°35' W 092°18'  

Dump ship's entire track history